Time;durP1;ratioP1;P1;durP2;ratioP2;P2;SDS_P1;SDS_P2;PMS_P1;PMS_P2;Temp;Humidity;BMP_temperature;BMP_pressure;BME280_temperature;BME280_humidity;BME280_pressure;Samples;Min_cycle;Max_cycle;Signal;HPM_P1;HPM_P2
2022/01/03 00:02:24;;;;;;;6.93;5.67;;;;;;;9.60;69.96;98124.67;2228051;79;20999;-83
2022/01/03 00:05:24;;;;;;;9.20;6.20;;;;;;;9.56;70.57;98113.36;2227714;79;20963;-82
2022/01/03 00:08:25;;;;;;;12.40;7.20;;;;;;;9.53;70.59;98116.36;2228111;79;20909;-82
2022/01/03 00:11:25;;;;;;;11.37;6.93;;;;;;;9.50;70.91;98110.70;2228113;80;20909;-81
2022/01/03 00:14:26;;;;;;;11.57;7.13;;;;;;;9.48;70.89;98109.83;2228176;79;21381;-82
2022/01/03 00:17:26;;;;;;;8.93;6.53;;;;;;;9.44;71.03;98110.67;2226836;79;21315;-82
2022/01/03 00:20:29;;;;;;;13.10;7.33;;;;;;;9.42;71.02;98107.19;2227377;80;20944;-81
2022/01/03 00:23:29;;;;;;;11.20;7.07;;;;;;;9.42;71.10;98105.02;2227169;79;20978;-82
2022/01/03 00:26:30;;;;;;;15.30;7.77;;;;;;;9.38;71.45;98104.56;2227240;79;20996;-82
2022/01/03 00:29:30;;;;;;;12.50;7.10;;;;;;;9.37;70.92;98111.94;2227431;80;20987;-82
2022/01/03 00:32:31;;;;;;;11.20;6.77;;;;;;;9.37;70.79;98110.20;2226993;80;20939;-81
2022/01/03 00:35:31;;;;;;;10.50;7.30;;;;;;;9.35;71.07;98111.06;2227369;79;20927;-82
2022/01/03 00:41:34;;;;;;;9.77;6.13;;;;;;;9.32;70.65;98118.42;2217085;80;20964;-82
2022/01/03 00:47:38;;;;;;;11.27;6.37;;;;;;;9.28;71.25;98108.86;2229619;79;20981;-82
2022/01/03 00:50:39;;;;;;;10.93;6.60;;;;;;;9.26;70.91;98104.08;2256947;79;21031;-82
2022/01/03 00:53:40;;;;;;;11.63;7.07;;;;;;;9.24;71.22;98101.89;2256864;79;20959;-81
2022/01/03 00:56:44;;;;;;;12.47;6.97;;;;;;;9.21;71.34;98107.95;2256468;79;20996;-82
2022/01/03 00:59:44;;;;;;;8.70;5.92;;;;;;;9.19;71.25;98103.60;2258436;77;20995;-81
2022/01/03 01:02:45;;;;;;;11.67;6.40;;;;;;;9.16;71.29;98108.36;2255721;79;21137;-83
2022/01/03 01:05:45;;;;;;;11.27;6.73;;;;;;;9.13;71.64;98110.08;2258310;79;20960;-82
2022/01/03 01:08:46;;;;;;;9.83;6.20;;;;;;;9.10;71.36;98106.16;2257973;79;21000;-82
2022/01/03 01:11:46;;;;;;;13.77;6.30;;;;;;;9.06;71.61;98092.25;2258126;79;20968;-83
2022/01/03 01:14:47;;;;;;;8.83;5.43;;;;;;;9.01;71.84;98090.48;2257812;79;20957;-83
2022/01/03 01:17:47;;;;;;;8.80;5.83;;;;;;;8.97;71.51;98088.72;2257756;79;20913;-82
2022/01/03 01:20:50;;;;;;;8.40;5.43;;;;;;;8.98;71.76;98083.95;2230624;79;21014;-83
2022/01/03 01:23:52;;;;;;;8.50;5.83;;;;;;;8.99;71.71;98086.56;2257738;79;20964;-83
2022/01/03 01:30:11;;;;;;;9.43;5.90;;;;;;;9.02;71.66;98089.62;2257585;79;20988;-82
2022/01/03 01:33:12;;;;;;;9.43;5.63;;;;;;;9.03;71.40;98081.81;2230348;79;21033;-82
2022/01/03 01:36:14;;;;;;;9.60;5.77;;;;;;;9.02;71.00;98094.83;2230292;79;21020;-82
2022/01/03 01:39:16;;;;;;;9.07;5.73;;;;;;;9.06;71.36;98083.14;2230316;79;21013;-82
2022/01/03 01:42:17;;;;;;;10.33;6.27;;;;;;;9.10;70.85;98086.63;2257977;79;20968;-82
2022/01/03 01:45:19;;;;;;;8.37;5.57;;;;;;;9.13;70.88;98083.61;2245263;78;21003;-81
2022/01/03 01:48:19;;;;;;;7.90;6.00;;;;;;;9.13;70.54;98078.83;2229164;79;20984;-81
2022/01/03 01:51:20;;;;;;;13.07;6.30;;;;;;;9.14;70.73;98075.37;2228416;79;20940;-83
2022/01/03 01:54:20;;;;;;;8.03;5.63;;;;;;;9.15;70.40;98065.39;2229352;79;20947;-83
2022/01/03 01:57:21;;;;;;;11.13;5.77;;;;;;;9.16;70.77;98055.42;2218324;80;21293;-82
2022/01/03 02:00:22;;;;;;;7.60;5.80;;;;;;;9.16;70.54;98064.53;2229327;80;20921;-82
2022/01/03 02:03:22;;;;;;;10.80;5.90;;;;;;;9.12;70.72;98047.16;2229309;79;20917;-82
2022/01/03 02:06:23;;;;;;;16.63;6.10;;;;;;;9.09;70.30;98045.83;2229437;79;20921;-83
2022/01/03 02:09:23;;;;;;;10.77;6.13;;;;;;;9.09;70.70;98043.23;2229427;79;20912;-82
2022/01/03 02:12:24;;;;;;;8.03;5.80;;;;;;;9.06;70.67;98033.67;2229350;79;20936;-82
2022/01/03 02:15:24;;;;;;;8.67;5.53;;;;;;;9.05;70.68;98034.97;2229477;79;21312;-82
2022/01/03 02:18:25;;;;;;;9.50;5.37;;;;;;;8.98;70.33;98033.20;2229434;80;20917;-82
2022/01/03 02:21:25;;;;;;;9.83;5.97;;;;;;;8.99;70.52;98037.11;2229495;80;20980;-83
2022/01/03 02:24:28;;;;;;;8.27;5.23;;;;;;;9.03;70.71;98045.38;2218253;80;21000;-82
2022/01/03 02:27:29;;;;;;;7.47;5.00;;;;;;;9.05;70.48;98041.48;2229247;80;21419;-82
2022/01/03 02:30:30;;;;;;;8.73;5.67;;;;;;;9.07;70.28;98046.26;2229603;79;20965;-83
2022/01/03 02:33:31;;;;;;;10.83;5.13;;;;;;;9.07;70.03;98048.86;2229896;80;20968;-82
2022/01/03 02:36:32;;;;;;;10.80;6.47;;;;;;;9.04;70.04;98042.34;2229297;79;21043;-82
2022/01/03 02:39:33;;;;;;;10.70;5.73;;;;;;;9.01;70.03;98046.23;2226938;79;21486;-81
2022/01/03 02:42:33;;;;;;;6.63;5.53;;;;;;;8.98;70.44;98038.41;2227957;79;20976;-82
2022/01/03 02:45:34;;;;;;;8.53;6.00;;;;;;;8.98;70.17;98035.37;2218983;79;20932;-82
2022/01/03 02:51:38;;;;;;;9.93;5.47;;;;;;;8.98;70.64;98027.56;2215703;80;21024;-80
2022/01/03 02:54:39;;;;;;;11.37;6.43;;;;;;;9.00;70.20;98030.17;2235386;79;21339;-81
2022/01/03 02:57:39;;;;;;;10.90;6.00;;;;;;;9.00;70.35;98028.87;2235532;79;21095;-81
2022/01/03 03:00:48;;;;;;;9.63;5.53;;;;;;;8.98;70.61;98029.30;2234714;79;20975;-81
2022/01/03 03:03:50;;;;;;;10.87;6.63;;;;;;;8.94;70.74;98021.47;2234924;79;20983;-82
2022/01/03 03:06:51;;;;;;;10.83;7.00;;;;;;;8.88;70.34;98023.17;2234986;80;21039;-81
2022/01/03 03:09:51;;;;;;;11.20;6.47;;;;;;;8.81;70.30;98027.91;2234979;79;21347;-81
2022/01/03 03:12:52;;;;;;;8.83;5.83;;;;;;;8.74;70.37;98020.49;2234523;79;20939;-81
2022/01/03 03:15:53;;;;;;;8.33;5.50;;;;;;;8.65;70.76;98008.70;2235470;79;20988;-82
2022/01/03 03:18:54;;;;;;;9.97;6.27;;;;;;;8.59;70.62;98010.83;2236420;79;21355;-82
2022/01/03 03:21:54;;;;;;;9.33;6.27;;;;;;;8.56;71.10;98021.21;2236083;79;20967;-83
2022/01/03 03:24:55;;;;;;;10.87;6.40;;;;;;;8.53;71.09;98006.02;2236119;79;20939;-82
2022/01/03 03:27:55;;;;;;;9.63;6.60;;;;;;;8.49;71.48;98009.45;2235766;79;21022;-82
2022/01/03 03:30:58;;;;;;;9.20;5.83;;;;;;;8.44;71.70;98004.66;2235743;80;20963;-82
2022/01/03 03:33:58;;;;;;;11.97;6.50;;;;;;;8.37;71.97;98002.88;2236381;79;20928;-82
2022/01/03 03:36:59;;;;;;;8.67;6.57;;;;;;;8.24;72.08;97997.55;2236167;79;21051;-82
2022/01/03 03:40:00;;;;;;;9.00;6.47;;;;;;;8.15;72.36;97997.91;2236011;79;20979;-82
2022/01/03 03:43:01;;;;;;;11.20;6.60;;;;;;;8.07;72.60;97996.55;2236103;80;20991;-82
2022/01/03 03:46:01;;;;;;;8.07;6.27;;;;;;;7.97;72.88;97987.81;2232251;79;20952;-81
2022/01/03 03:49:02;;;;;;;11.00;6.23;;;;;;;7.89;73.28;97984.70;2228779;79;20960;-82
2022/01/03 03:52:02;;;;;;;10.10;6.37;;;;;;;7.84;73.56;97984.66;2229039;80;20956;-82
2022/01/03 03:55:03;;;;;;;12.17;7.00;;;;;;;7.80;73.71;97976.40;2229128;79;20932;-82
2022/01/03 03:58:03;;;;;;;11.73;6.30;;;;;;;7.80;73.84;97984.59;2229223;79;20988;-82
2022/01/03 04:01:04;;;;;;;8.70;5.87;;;;;;;7.80;74.12;97988.48;2229090;79;20952;-82
2022/01/03 04:04:04;;;;;;;15.10;7.60;;;;;;;7.82;74.28;97980.31;2228807;80;21234;-83
2022/01/03 04:07:05;;;;;;;9.60;6.37;;;;;;;7.85;74.38;97977.73;2229078;79;20951;-81
2022/01/03 04:10:06;;;;;;;11.53;7.60;;;;;;;7.87;74.30;97971.70;2229053;80;20889;-82
2022/01/03 04:13:06;;;;;;;8.27;6.03;;;;;;;7.88;74.47;97977.33;2228537;80;20913;-82
2022/01/03 04:16:07;;;;;;;10.17;6.03;;;;;;;7.94;74.42;97979.11;2228536;79;20967;-81
2022/01/03 04:19:09;;;;;;;10.80;6.13;;;;;;;8.01;74.45;97970.51;2228947;79;20933;-83
2022/01/03 04:22:11;;;;;;;8.10;6.22;;;;;;;8.06;74.42;97975.31;2218237;80;21056;-83
2022/01/03 04:25:12;;;;;;;8.63;6.17;;;;;;;8.10;74.31;97969.28;2227984;80;20928;-83
2022/01/03 04:28:12;;;;;;;8.37;5.87;;;;;;;8.14;74.27;97958.48;2228755;79;21007;-82
2022/01/03 04:31:16;;;;;;;11.13;6.00;;;;;;;8.18;74.33;97959.81;2228567;80;20991;-82
2022/01/03 04:34:16;;;;;;;8.10;5.20;;;;;;;8.23;74.21;97945.11;2228498;79;20956;-82
2022/01/03 04:37:17;;;;;;;8.77;6.30;;;;;;;8.25;74.09;97944.69;2227961;80;20987;-82
2022/01/03 04:40:18;;;;;;;9.10;5.77;;;;;;;8.27;74.16;97944.70;2227097;79;20971;-82
2022/01/03 04:43:18;;;;;;;9.10;5.63;;;;;;;8.32;74.22;97944.30;2227123;79;20928;-83
2022/01/03 04:46:19;;;;;;;9.83;5.93;;;;;;;8.34;74.06;97945.64;2245248;78;21654;-83
2022/01/03 04:52:22;;;;;;;10.77;6.50;;;;;;;8.33;73.89;97941.27;2234517;79;21482;-82
2022/01/03 04:55:22;;;;;;;9.37;5.93;;;;;;;8.31;74.05;97929.13;2261366;79;20908;-83
2022/01/03 04:58:23;;;;;;;10.30;6.60;;;;;;;8.29;74.09;97926.08;2263625;79;21046;-83
2022/01/03 05:01:23;;;;;;;8.83;5.33;;;;;;;8.26;74.09;97924.33;2263952;79;20940;-83
2022/01/03 05:04:24;;;;;;;13.47;6.23;;;;;;;8.23;74.23;97921.71;2263167;79;21356;-82
2022/01/03 05:07:24;;;;;;;10.83;5.93;;;;;;;8.19;74.31;97923.85;2263372;79;21307;-82
2022/01/03 05:10:24;;;;;;;8.73;5.73;;;;;;;8.13;74.30;97929.02;2263755;79;20991;-82
2022/01/03 05:13:25;;;;;;;8.80;5.87;;;;;;;8.07;74.26;97930.27;2263892;79;20944;-81
2022/01/03 05:16:26;;;;;;;10.83;6.10;;;;;;;7.99;74.40;97925.02;2263727;79;20980;-82
2022/01/03 05:19:26;;;;;;;11.37;6.40;;;;;;;7.92;74.58;97926.27;2263526;79;20982;-82
2022/01/03 05:22:27;;;;;;;7.47;5.77;;;;;;;7.87;74.87;97922.76;2263280;79;21356;-83
2022/01/03 05:25:27;;;;;;;7.67;5.90;;;;;;;7.87;75.01;97921.45;2262180;79;20986;-83
2022/01/03 05:28:28;;;;;;;9.57;6.20;;;;;;;7.87;75.03;97917.13;2262308;79;21022;-83
2022/01/03 05:31:28;;;;;;;12.70;6.37;;;;;;;7.90;75.08;97904.59;2262293;79;20963;-82
2022/01/03 05:34:29;;;;;;;11.83;6.10;;;;;;;7.93;75.20;97903.31;2261699;79;20940;-82
2022/01/03 05:37:31;;;;;;;8.27;5.63;;;;;;;7.95;75.24;97885.58;2261871;79;21037;-83
2022/01/03 05:40:32;;;;;;;12.53;6.40;;;;;;;7.98;75.21;97887.33;2263003;79;20973;-82
2022/01/03 05:43:33;;;;;;;8.57;5.60;;;;;;;8.03;75.38;97883.03;2262391;79;21106;-82
2022/01/03 05:46:33;;;;;;;13.07;7.27;;;;;;;8.03;75.38;97883.03;2261888;78;21060;-82
2022/01/03 05:49:34;;;;;;;10.07;6.43;;;;;;;8.07;75.78;97874.82;2262913;79;20987;-83
2022/01/03 05:52:35;;;;;;;11.23;6.13;;;;;;;8.07;76.05;97885.22;2262329;79;20984;-83
2022/01/03 05:55:36;;;;;;;9.97;6.03;;;;;;;8.07;76.50;97878.72;2262056;78;21019;-81
2022/01/03 05:58:37;;;;;;;6.83;5.47;;;;;;;8.07;76.50;97878.72;2261598;79;21403;-82
2022/01/03 06:01:38;;;;;;;9.67;6.80;;;;;;;8.06;76.87;97877.84;2261400;79;21061;-83
2022/01/03 06:05:00;;;;;;;8.50;6.70;;;;;;;8.05;76.85;97881.31;2260839;79;20999;-82
2022/01/03 06:07:59;;;;;;;11.10;7.33;;;;;;;8.07;77.10;97883.48;2259575;79;21275;-82
2022/01/03 06:11:01;;;;;;;10.07;6.73;;;;;;;8.07;77.70;97880.02;2261503;79;21492;-82
2022/01/03 06:14:03;;;;;;;10.75;6.17;;;;;;;8.05;78.04;97880.01;2260739;79;20987;-82
2022/01/03 06:17:06;;;;;;;8.70;5.63;;;;;;;8.02;79.03;97879.12;2259889;79;21911;-82
2022/01/03 06:20:06;;;;;;;9.57;5.53;;;;;;;7.92;79.87;97869.96;2260951;79;20947;-81
2022/01/03 06:23:07;;;;;;;7.10;5.30;;;;;;;7.83;80.24;97871.62;2261008;79;20936;-83
2022/01/03 06:26:11;;;;;;;7.03;5.40;;;;;;;7.79;80.42;97875.03;2232695;79;20972;-82
2022/01/03 06:29:14;;;;;;;8.53;6.20;;;;;;;7.75;81.22;97864.17;2260572;79;21424;-82
2022/01/03 06:32:17;;;;;;;9.13;5.60;;;;;;;7.70;81.87;97863.27;2220447;80;21399;-82
2022/01/03 06:35:18;;;;;;;10.03;5.53;;;;;;;7.63;81.65;97865.83;2252717;79;20979;-82
2022/01/03 06:38:18;;;;;;;8.20;5.70;;;;;;;7.60;82.07;97867.10;2262218;79;21019;-82
2022/01/03 06:41:19;;;;;;;9.33;5.67;;;;;;;7.57;82.05;97868.38;2262436;79;21027;-84
2022/01/03 06:44:20;;;;;;;10.53;6.50;;;;;;;7.56;82.46;97867.93;2261108;79;20986;-81
2022/01/03 06:47:20;;;;;;;12.33;7.83;;;;;;;7.55;82.52;97877.88;2237155;78;21079;-82
2022/01/03 06:50:21;;;;;;;9.70;6.47;;;;;;;7.54;82.54;97889.55;2227291;79;20995;-83
2022/01/03 06:53:21;;;;;;;11.33;6.67;;;;;;;7.53;82.79;97885.22;2227738;79;21427;-82
2022/01/03 06:56:22;;;;;;;10.73;6.47;;;;;;;7.54;83.14;97889.13;2226356;79;21377;-82
2022/01/03 06:59:22;;;;;;;14.87;8.30;;;;;;;7.53;83.11;97883.91;2214894;80;21015;-82
2022/01/03 07:02:23;;;;;;;14.53;8.37;;;;;;;7.53;83.11;97886.52;2225790;79;21006;-81
2022/01/03 07:05:24;;;;;;;14.43;8.03;;;;;;;7.57;83.52;97881.36;2225036;79;20968;-82
2022/01/03 07:08:24;;;;;;;13.80;7.40;;;;;;;7.56;83.36;97883.95;2225951;79;20975;-83
2022/01/03 07:11:25;;;;;;;9.73;6.73;;;;;;;7.55;83.73;97875.28;2226938;79;20951;-82
2022/01/03 07:20:50;;;;;;;10.03;5.60;;;;;;;7.58;84.10;97879.63;2226309;79;21086;-83
2022/01/03 07:23:51;;;;;;;6.33;5.67;;;;;;;7.64;83.84;97869.30;2225641;80;21451;-81
2022/01/03 07:26:51;;;;;;;10.37;5.23;;;;;;;7.70;83.59;97871.94;2225214;79;20980;-81
2022/01/03 07:29:53;;;;;;;6.53;4.40;;;;;;;7.76;83.25;97868.52;2226299;80;20913;-82
2022/01/03 07:32:57;;;;;;;7.70;5.13;;;;;;;7.83;83.20;97869.03;2215418;80;21762;-83
2022/01/03 07:35:58;;;;;;;7.03;5.13;;;;;;;7.88;82.85;97864.73;2226965;80;20948;-82
2022/01/03 07:39:02;;;;;;;10.00;4.90;;;;;;;7.94;82.61;97864.34;2225857;80;21027;-81
2022/01/03 07:42:05;;;;;;;8.03;5.07;;;;;;;8.03;82.33;97870.46;2214714;80;20999;-82
2022/01/03 07:45:09;;;;;;;9.93;5.10;;;;;;;8.06;82.04;97860.09;2227221;80;21022;-82
2022/01/03 07:48:09;;;;;;;5.27;4.00;;;;;;;8.09;81.81;97877.87;2258031;78;21375;-82
2022/01/03 07:51:12;;;;;;;7.90;4.43;;;;;;;8.11;81.22;97880.05;2234110;79;21018;-82
2022/01/03 07:54:12;;;;;;;8.70;5.23;;;;;;;8.17;81.06;97875.31;2261206;79;21379;-80
2022/01/03 08:00:17;;;;;;;18.63;7.37;;;;;;;8.25;80.77;97886.20;2235491;79;21070;-81
2022/01/03 08:03:17;;;;;;;25.33;8.80;;;;;;;8.26;80.58;97890.97;2262711;79;21390;-80
2022/01/03 08:06:20;;;;;;;19.27;7.77;;;;;;;8.27;80.44;97900.08;2262413;79;20959;-82
2022/01/03 08:09:20;;;;;;;16.60;7.00;;;;;;;8.29;80.01;97896.18;2262736;79;21015;-82
2022/01/03 08:12:21;;;;;;;24.70;10.60;;;;;;;8.28;79.84;97884.05;2261917;79;21015;-81
2022/01/03 08:15:23;;;;;;;18.70;8.47;;;;;;;8.31;79.92;97891.43;2261291;79;21710;-81
2022/01/03 08:18:24;;;;;;;17.03;7.30;;;;;;;8.32;79.57;97906.59;2261038;79;21056;-81
2022/01/03 08:21:27;;;;;;;24.30;9.13;;;;;;;8.35;78.95;97892.35;2260351;79;20984;-81
2022/01/03 08:27:30;;;;;;;19.17;7.97;;;;;;;8.44;78.54;97908.44;2233759;79;21034;-80
2022/01/03 08:30:33;;;;;;;18.27;8.30;;;;;;;8.46;78.69;97899.78;2260861;79;21074;-81
2022/01/03 08:33:34;;;;;;;21.20;9.20;;;;;;;8.50;78.22;97913.23;2261411;79;21043;-81
2022/01/03 08:36:38;;;;;;;16.17;6.80;;;;;;;8.54;78.15;97920.19;2261929;79;21095;-82
2022/01/03 08:39:38;;;;;;;18.63;9.40;;;;;;;8.58;78.08;97911.54;2262957;79;21753;-83
2022/01/03 08:42:39;;;;;;;14.63;6.70;;;;;;;8.61;77.96;97915.45;2262057;79;21454;-82
2022/01/03 08:45:39;;;;;;;18.00;7.70;;;;;;;8.64;77.73;97908.09;2261669;79;20963;-82
2022/01/03 08:48:40;;;;;;;11.37;6.43;;;;;;;8.63;78.39;97917.63;2220392;79;21030;-81
2022/01/03 08:51:40;;;;;;;26.23;14.70;;;;;;;8.56;78.60;97918.47;2240695;79;20923;-81
2022/01/03 08:54:44;;;;;;;19.80;12.60;;;;;;;8.55;78.78;97917.16;2240278;79;20951;-83
2022/01/03 08:57:47;;;;;;;21.97;9.87;;;;;;;8.57;78.76;97918.03;2240941;79;20994;-81
2022/01/03 09:00:47;;;;;;;18.47;8.73;;;;;;;8.61;78.27;97918.48;2240544;79;21003;-81
2022/01/03 09:03:54;;;;;;;16.83;8.00;;;;;;;8.68;77.51;97913.78;2239780;79;20967;-82
2022/01/03 09:06:57;;;;;;;18.30;7.97;;;;;;;8.72;77.64;97923.34;2240034;79;20948;-82
2022/01/03 09:09:57;;;;;;;15.53;7.60;;;;;;;8.75;77.30;97914.25;2240729;79;20959;-81
2022/01/03 09:12:57;;;;;;;15.53;6.77;;;;;;;8.84;76.88;97898.67;2240662;79;21011;-82
2022/01/03 09:19:00;;;;;;;15.07;6.30;;;;;;;9.00;75.01;97909.13;2208055;81;21349;-84
2022/01/03 09:22:12;;;;;;;14.87;6.60;;;;;;;9.01;75.02;97906.53;2234337;79;20986;-82
2022/01/03 09:31:29;;;;;;;11.97;6.20;;;;;;;9.00;74.92;97913.03;2239535;79;21071;-82
2022/01/03 09:34:31;;;;;;;14.07;7.23;;;;;;;9.00;74.55;97920.84;2238835;79;21054;-82
2022/01/03 09:37:33;;;;;;;15.43;6.37;;;;;;;9.06;74.35;97909.15;2239131;79;21018;-82
2022/01/03 09:40:37;;;;;;;16.10;6.63;;;;;;;9.09;74.58;97903.52;2239630;79;20999;-81
2022/01/03 09:43:37;;;;;;;9.13;4.50;;;;;;;9.10;75.02;97909.59;2240750;79;20988;-81
2022/01/03 09:46:38;;;;;;;7.00;4.07;;;;;;;9.00;75.40;97903.92;2238022;78;21015;-81
2022/01/03 09:49:40;;;;;;;8.00;3.60;;;;;;;8.88;75.26;97901.72;2215744;80;21015;-81
2022/01/03 09:55:43;;;;;;;7.00;3.50;;;;;;;8.84;75.63;97896.06;2213535;80;21371;-79
2022/01/03 09:58:46;;;;;;;7.03;3.20;;;;;;;8.89;75.15;97890.88;2223960;79;21016;-81
2022/01/03 10:04:50;;;;;;;7.03;3.47;;;;;;;9.14;72.63;97890.08;2214261;80;20964;-80
2022/01/03 10:07:50;;;;;;;6.93;3.70;;;;;;;9.12;72.76;97886.61;2224488;80;21375;-80
2022/01/03 10:10:52;;;;;;;5.53;3.23;;;;;;;9.06;71.95;97887.02;2225745;79;21589;-81
2022/01/03 10:13:54;;;;;;;8.20;2.90;;;;;;;8.99;73.25;97890.48;2215254;80;21036;-78
2022/01/03 10:16:55;;;;;;;11.33;4.80;;;;;;;8.89;73.94;97891.75;2226005;79;20925;-81
2022/01/03 10:19:55;;;;;;;9.17;3.97;;;;;;;8.84;75.01;97878.28;2226521;79;20983;-84
2022/01/03 10:22:56;;;;;;;10.53;3.10;;;;;;;8.74;74.61;97886.49;2226454;79;21134;-82
2022/01/03 10:25:57;;;;;;;6.07;3.40;;;;;;;8.64;74.43;97879.48;2226170;79;21042;-84
2022/01/03 10:28:57;;;;;;;6.77;3.53;;;;;;;8.61;74.36;97871.66;2226322;79;21514;-81
2022/01/03 10:31:59;;;;;;;10.10;4.83;;;;;;;8.59;74.78;97862.55;2227451;80;20975;-83
2022/01/03 10:35:00;;;;;;;7.90;3.80;;;;;;;8.60;74.01;97864.72;2226189;79;21471;-83
2022/01/03 10:38:00;;;;;;;7.77;4.37;;;;;;;8.59;73.93;97857.35;2227382;80;20963;-83
2022/01/03 10:41:02;;;;;;;6.43;3.23;;;;;;;8.60;73.06;97853.02;2226324;80;21023;-82
2022/01/03 10:44:06;;;;;;;8.23;3.87;;;;;;;8.63;73.09;97836.13;2226291;80;21043;-83
2022/01/03 10:47:08;;;;;;;6.17;3.10;;;;;;;8.78;72.71;97838.80;2232511;79;21075;-82
2022/01/03 10:50:11;;;;;;;7.53;3.87;;;;;;;8.91;70.82;97835.37;2252826;79;21023;-81
2022/01/03 10:53:11;;;;;;;4.83;2.50;;;;;;;9.04;72.55;97818.47;2254356;79;21312;-82
2022/01/03 10:56:15;;;;;;;6.97;2.30;;;;;;;9.10;70.63;97812.84;2254723;79;21039;-82
2022/01/03 10:59:21;;;;;;;7.20;3.03;;;;;;;9.16;69.95;97818.48;2228108;79;21403;-83
2022/01/03 11:02:20;;;;;;;7.93;3.60;;;;;;;9.16;69.95;97818.48;2254106;79;21497;-82
2022/01/03 11:11:45;;;;;;;12.03;4.53;;;;;;;9.15;70.31;97825.86;2227337;79;21074;-82
2022/01/03 11:14:46;;;;;;;8.83;3.90;;;;;;;9.08;71.02;97834.53;2253977;79;21363;-83
2022/01/03 11:17:47;;;;;;;7.87;3.53;;;;;;;8.91;71.64;97850.11;2254484;79;21433;-83
2022/01/03 11:20:52;;;;;;;27.90;9.77;;;;;;;8.77;73.34;97850.51;2226181;79;21082;-83
2022/01/03 11:23:53;;;;;;;12.30;4.43;;;;;;;8.57;74.42;97857.77;2254583;79;21900;-85
2022/01/03 11:26:55;;;;;;;6.60;2.57;;;;;;;8.35;77.94;97862.45;2227808;79;20991;-84
2022/01/03 11:29:56;;;;;;;10.90;4.77;;;;;;;8.05;78.76;97869.61;2255128;79;20964;-85
2022/01/03 11:33:00;;;;;;;10.53;3.80;;;;;;;7.86;79.57;97870.35;2228382;79;21454;-82
2022/01/03 11:36:02;;;;;;;10.93;5.93;;;;;;;7.68;82.03;97864.13;2255111;79;21070;-83
2022/01/03 11:39:04;;;;;;;12.73;5.87;;;;;;;7.68;82.03;97864.13;2227984;79;21008;-86
2022/01/03 11:42:05;;;;;;;9.87;4.50;;;;;;;7.64;82.15;97873.19;2255090;79;21067;-84
2022/01/03 11:45:05;;;;;;;10.20;4.87;;;;;;;7.59;83.33;97882.67;2254470;79;20959;-85
2022/01/03 11:48:08;;;;;;;13.77;4.53;;;;;;;7.52;84.10;97903.82;2221895;79;21022;-85
2022/01/03 11:51:09;;;;;;;6.97;3.70;;;;;;;7.47;84.55;97894.25;2240798;79;21279;-86
2022/01/03 11:54:14;;;;;;;9.33;4.10;;;;;;;7.43;85.17;97895.95;2240121;79;20971;-84
2022/01/03 11:57:32;;;;;;;7.80;4.70;;;;;;;7.43;84.96;97879.50;2239667;79;21015;-84
2022/01/03 12:03:41;;;;;;;5.90;3.77;;;;;;;7.56;82.64;97886.11;2220499;79;21034;-85
2022/01/03 12:06:45;;;;;;;6.43;3.20;;;;;;;7.64;82.04;97890.94;2241069;79;20983;-85
2022/01/03 12:09:47;;;;;;;6.87;3.20;;;;;;;7.71;81.54;97881.89;2241719;79;21031;-85
2022/01/03 12:12:48;;;;;;;5.37;3.47;;;;;;;7.65;81.75;97880.99;2241519;79;21022;-85
2022/01/03 12:15:48;;;;;;;6.57;3.87;;;;;;;7.65;81.75;97880.99;2220619;79;21217;-85
2022/01/03 12:18:49;;;;;;;6.57;2.97;;;;;;;7.70;81.91;97894.02;2240304;79;20987;-85
2022/01/03 12:21:50;;;;;;;4.00;2.57;;;;;;;7.79;82.15;97894.09;2239427;79;20987;-85
2022/01/03 12:24:50;;;;;;;3.53;2.20;;;;;;;7.94;81.22;97893.36;2239612;79;21002;-84
2022/01/03 12:30:53;;;;;;;5.40;3.30;;;;;;;8.04;80.70;97895.16;2220097;79;21070;-85
2022/01/03 12:33:57;;;;;;;12.73;4.90;;;;;;;7.89;81.50;97888.13;2239743;79;21070;-84
2022/01/03 12:36:57;;;;;;;10.10;4.10;;;;;;;7.89;81.50;97888.13;2240499;79;20951;-85
2022/01/03 12:39:59;;;;;;;6.60;3.90;;;;;;;7.89;82.07;97905.02;2240774;79;21366;-84
2022/01/03 12:43:06;;;;;;;7.03;3.70;;;;;;;7.82;82.42;97905.83;2210112;81;21031;-85
2022/01/03 12:46:07;;;;;;;8.97;4.00;;;;;;;7.67;82.90;97914.34;2236127;79;20955;-86
2022/01/03 12:49:07;;;;;;;6.93;3.17;;;;;;;7.54;84.99;97911.63;2256081;78;20972;-85
2022/01/03 12:58:13;;;;;;;6.63;4.20;;;;;;;7.19;85.85;97909.99;2233087;79;21042;-84
2022/01/03 13:01:16;;;;;;;8.60;6.10;;;;;;;7.11;86.04;97909.91;2260898;79;21018;-85
2022/01/03 13:04:17;;;;;;;17.57;5.97;;;;;;;7.05;86.67;97913.74;2261772;79;20947;-84
2022/01/03 13:07:18;;;;;;;5.43;2.80;;;;;;;6.97;88.31;97929.23;2261121;79;22048;-86
2022/01/03 13:10:18;;;;;;;3.73;2.60;;;;;;;6.86;90.27;97957.16;2260988;79;21010;-84
2022/01/03 13:13:19;;;;;;;8.53;3.43;;;;;;;6.61;93.45;97932.64;2260370;79;21402;-85
2022/01/03 13:16:20;;;;;;;3.30;1.70;;;;;;;6.31;90.22;97960.31;2261735;79;21067;-84
2022/01/03 13:19:25;;;;;;;6.23;2.20;;;;;;;6.21;89.93;97954.12;2218255;80;21078;-84
2022/01/03 13:22:26;;;;;;;5.60;2.60;;;;;;;6.17;91.12;97956.23;2253410;79;21121;-85
2022/01/03 13:31:33;;;;;;;5.27;2.97;;;;;;;6.05;92.56;97973.72;2234305;79;21054;-85
2022/01/03 13:34:34;;;;;;;5.80;3.53;;;;;;;6.07;92.79;97975.08;2261836;79;20953;-84
2022/01/03 13:37:36;;;;;;;9.33;4.23;;;;;;;6.10;93.45;97972.53;2219047;80;21027;-84
2022/01/03 13:40:38;;;;;;;4.77;3.30;;;;;;;6.11;93.33;97969.09;2253267;79;21415;-85
2022/01/03 13:43:44;;;;;;;6.33;3.90;;;;;;;6.22;93.09;97984.38;2219508;80;21988;-85
2022/01/03 13:50:06;;;;;;;6.27;3.60;;;;;;;6.36;92.53;97991.94;2220021;79;21070;-85
2022/01/03 13:53:09;;;;;;;7.97;3.93;;;;;;;6.41;92.60;97993.30;2219291;79;21386;-84
2022/01/03 13:56:11;;;;;;;;;;;;;;;6.48;92.56;97986.48;2241616;79;21030;-89
2022/01/03 13:59:12;;;;;;;5.03;3.57;;;;;;;6.50;92.87;97994.73;2240093;78;20149;-85
2022/01/03 14:02:12;;;;;;;12.53;4.73;;;;;;;6.56;92.62;97986.16;2240767;79;21003;-85
2022/01/03 14:05:15;;;;;;;10.00;5.77;;;;;;;6.64;92.41;97997.52;2238644;79;21046;-84
2022/01/03 14:08:19;;;;;;;10.97;6.50;;;;;;;6.70;92.12;98004.08;2239620;79;20983;-85
2022/01/03 14:11:18;;;;;;;14.47;5.57;;;;;;;6.76;91.95;98000.69;2239899;79;21121;-85
2022/01/03 14:17:24;;;;;;;9.70;5.03;;;;;;;6.87;91.29;97997.81;2219378;79;21054;-85
2022/01/03 14:20:26;;;;;;;11.27;5.97;;;;;;;6.93;91.10;98010.44;2238607;79;20985;-85
2022/01/03 14:23:30;;;;;;;19.37;7.40;;;;;;;6.99;90.53;98003.19;2235051;79;21084;-85
2022/01/03 14:29:33;;;;;;;11.37;5.37;;;;;;;7.12;89.91;98015.89;2218744;79;21074;-84
2022/01/03 14:32:35;;;;;;;11.40;5.40;;;;;;;7.14;89.22;98020.25;2238752;79;20987;-85
2022/01/03 14:35:37;;;;;;;16.93;6.70;;;;;;;7.14;88.69;98023.27;2238669;79;21070;-84
2022/01/03 14:38:40;;;;;;;15.97;7.47;;;;;;;7.14;88.80;98021.97;2218332;79;20964;-84
2022/01/03 14:41:50;;;;;;;18.03;7.43;;;;;;;7.12;88.56;98024.55;2219606;79;21058;-85
2022/01/03 14:44:51;;;;;;;19.13;8.47;;;;;;;7.10;88.47;98030.14;2239633;79;21031;-84
2022/01/03 14:50:54;;;;;;;18.73;7.70;;;;;;;7.06;87.94;98044.36;2234324;79;21027;-84
2022/01/03 14:57:00;;;;;;;14.60;6.27;;;;;;;7.02;87.67;98044.31;2234780;79;21038;-85
2022/01/03 15:00:01;;;;;;;17.30;7.83;;;;;;;6.98;87.17;98040.37;2261419;79;20944;-85
2022/01/03 15:03:01;;;;;;;17.10;7.80;;;;;;;6.96;86.87;98052.02;2262306;79;21377;-87
2022/01/03 15:06:02;;;;;;;23.67;11.03;;;;;;;6.92;86.76;98051.50;2262230;79;21437;-85
2022/01/03 15:09:03;;;;;;;22.53;11.00;;;;;;;6.89;86.93;98060.97;2234784;79;20944;-85
2022/01/03 15:15:08;;;;;;;15.67;6.93;;;;;;;6.79;86.27;98072.06;2235265;79;20958;-86
2022/01/03 15:18:08;;;;;;;21.37;8.57;;;;;;;6.74;86.16;98075.89;2262311;79;20995;-84
2022/01/03 15:21:09;;;;;;;25.00;10.90;;;;;;;6.68;85.73;98077.97;2263408;79;21080;-84
2022/01/03 15:24:10;;;;;;;24.23;8.47;;;;;;;6.65;85.84;98073.16;2264451;79;20955;-84
2022/01/03 15:27:14;;;;;;;17.10;7.73;;;;;;;6.63;85.32;98070.97;2237393;79;21070;-85
2022/01/03 15:30:22;;;;;;;21.70;7.63;;;;;;;6.63;84.90;98086.11;2264234;78;21573;-84
2022/01/03 15:33:18;;;;;;;14.53;5.93;;;;;;;6.64;85.41;98088.27;2235555;79;21344;-84
2022/01/03 15:36:19;;;;;;;16.23;6.90;;;;;;;6.61;84.83;98099.89;2263685;79;20979;-86
2022/01/03 15:39:22;;;;;;;18.13;6.63;;;;;;;6.62;85.11;98097.75;2263946;79;21070;-85
2022/01/03 15:42:24;;;;;;;15.67;7.10;;;;;;;6.63;84.98;98096.91;2262217;79;21004;-85
2022/01/03 15:45:27;;;;;;;21.13;8.37;;;;;;;6.67;85.08;98101.28;2236439;79;20983;-85